createdAt,value
2022-11-08T00:01:12.234Z,10.60
2022-11-08T00:03:38.969Z,10.60
2022-11-08T00:06:24.407Z,10.60
2022-11-08T00:09:09.699Z,10.50
2022-11-08T00:11:54.890Z,10.50
2022-11-08T00:14:21.695Z,10.50
2022-11-08T00:16:48.458Z,10.40
2022-11-08T00:19:15.372Z,10.40
2022-11-08T00:21:42.122Z,10.40
2022-11-08T00:24:09.047Z,10.40
2022-11-08T00:26:35.793Z,10.30
2022-11-08T00:29:02.599Z,10.30
2022-11-08T00:31:29.312Z,10.30
2022-11-08T00:33:56.087Z,10.30
2022-11-08T00:36:22.807Z,10.20
2022-11-08T00:38:49.593Z,10.20
2022-11-08T00:41:16.370Z,10.20
2022-11-08T00:43:43.444Z,10.20
2022-11-08T00:46:10.336Z,10.10
2022-11-08T00:48:37.498Z,10.20
2022-11-08T00:51:05.603Z,10.20
2022-11-08T00:53:32.561Z,9.80
2022-11-08T00:56:00.699Z,10.10
2022-11-08T00:58:28.320Z,10.00
2022-11-08T01:00:56.002Z,10.00
2022-11-08T01:03:24.142Z,10.10
2022-11-08T01:05:52.523Z,10.00
2022-11-08T01:08:20.814Z,9.60
2022-11-08T01:10:49.513Z,10.00
2022-11-08T01:13:17.048Z,10.00
2022-11-08T01:15:44.601Z,10.00
2022-11-08T01:18:12.395Z,10.00
2022-11-08T01:20:43.214Z,9.90
2022-11-08T01:23:10.566Z,9.90
2022-11-08T01:25:38.504Z,9.90
2022-11-08T01:28:05.884Z,9.80
2022-11-08T01:30:35.993Z,9.80
2022-11-08T01:33:02.892Z,9.80
2022-11-08T01:35:30.434Z,9.80
2022-11-08T01:37:57.325Z,9.70
2022-11-08T01:40:26.896Z,9.70
2022-11-08T01:42:54.109Z,9.60
2022-11-08T01:45:39.579Z,9.60
2022-11-08T01:48:06.371Z,9.60
2022-11-08T01:50:33.090Z,9.60
2022-11-08T01:53:00.128Z,9.50
2022-11-08T01:55:29.752Z,9.60
2022-11-08T01:58:02.361Z,9.50
2022-11-08T02:00:29.418Z,9.60
2022-11-08T02:03:03.788Z,9.60
2022-11-08T02:05:31.261Z,9.60
2022-11-08T02:08:10.581Z,9.50
2022-11-08T02:10:38.963Z,9.50
2022-11-08T02:13:13.321Z,9.50
2022-11-08T02:18:23.567Z,9.50
2022-11-08T02:21:08.889Z,9.50
2022-11-08T02:23:48.149Z,9.50
2022-11-08T02:26:16.104Z,9.50
2022-11-08T02:28:45.771Z,9.50
2022-11-08T02:31:13.345Z,9.50
2022-11-08T02:33:40.607Z,9.50
2022-11-08T02:36:08.287Z,9.50
2022-11-08T02:38:38.855Z,9.50
2022-11-08T02:41:07.228Z,9.40
2022-11-08T02:43:34.073Z,9.50
2022-11-08T02:46:00.916Z,9.50
2022-11-08T02:48:27.752Z,9.40
2022-11-08T02:50:54.560Z,9.50
2022-11-08T02:53:21.322Z,9.50
2022-11-08T02:55:48.034Z,9.40
2022-11-08T02:58:15.073Z,9.50
2022-11-08T03:00:42.084Z,9.40
2022-11-08T03:03:08.938Z,9.40
2022-11-08T03:05:35.758Z,9.40
2022-11-08T03:08:02.582Z,9.50
2022-11-08T03:10:29.353Z,9.40
2022-11-08T03:12:56.680Z,9.40
2022-11-08T03:15:23.594Z,9.40
2022-11-08T03:17:50.417Z,9.40
2022-11-08T03:20:18.252Z,9.40
2022-11-08T03:22:45.760Z,9.40
2022-11-08T03:25:12.947Z,9.40
2022-11-08T03:27:39.684Z,9.40
2022-11-08T03:30:07.217Z,9.50
2022-11-08T03:32:34.257Z,9.40
2022-11-08T03:35:01.102Z,9.40
2022-11-08T03:37:27.918Z,9.40
2022-11-08T03:39:54.702Z,9.30
2022-11-08T03:42:21.412Z,9.30
2022-11-08T03:44:48.203Z,9.40
2022-11-08T03:47:15.402Z,9.30
2022-11-08T03:49:42.079Z,9.40
2022-11-08T03:52:08.919Z,9.30
2022-11-08T03:54:35.820Z,9.30
2022-11-08T03:57:02.674Z,9.30
2022-11-08T03:59:29.430Z,9.30
2022-11-08T04:01:56.625Z,9.40
2022-11-08T04:04:23.635Z,9.30
2022-11-08T04:06:50.368Z,9.30
2022-11-08T04:09:21.355Z,9.30
2022-11-08T04:12:07.263Z,9.30
2022-11-08T04:14:52.754Z,9.20
2022-11-08T04:17:19.530Z,9.20
2022-11-08T04:20:05.005Z,9.30
2022-11-08T04:22:31.831Z,9.20
2022-11-08T04:24:58.633Z,9.20
2022-11-08T04:27:25.408Z,9.30
2022-11-08T04:29:52.268Z,9.30
2022-11-08T04:32:19.126Z,9.20
2022-11-08T04:34:45.889Z,9.20
2022-11-08T04:37:12.618Z,9.20
2022-11-08T04:39:39.338Z,9.20
2022-11-08T04:42:06.154Z,9.20
2022-11-08T04:44:32.899Z,9.20
2022-11-08T04:46:59.669Z,9.10
2022-11-08T04:49:26.352Z,9.10
2022-11-08T04:51:53.371Z,9.10
2022-11-08T04:54:20.196Z,9.10
2022-11-08T04:56:46.985Z,9.10
2022-11-08T04:59:14.034Z,9.20
2022-11-08T05:01:40.926Z,9.10
2022-11-08T05:04:07.767Z,9.10
2022-11-08T05:06:34.596Z,9.10
2022-11-08T05:09:01.376Z,9.20
2022-11-08T05:11:28.946Z,9.20
2022-11-08T05:13:55.793Z,9.20
2022-11-08T05:16:23.778Z,9.20
2022-11-08T05:18:50.530Z,9.20
2022-11-08T05:21:37.612Z,9.30
2022-11-08T05:24:05.618Z,9.20
2022-11-08T05:26:36.522Z,9.30
2022-11-08T05:29:03.923Z,9.30
2022-11-08T05:31:30.761Z,9.20
2022-11-08T05:33:57.730Z,9.20
2022-11-08T05:36:24.567Z,9.20
2022-11-08T05:38:51.790Z,9.20
2022-11-08T05:41:19.400Z,9.10
2022-11-08T05:43:47.601Z,9.10
2022-11-08T05:46:15.017Z,9.10
2022-11-08T05:48:42.418Z,9.10
2022-11-08T05:51:09.928Z,9.00
2022-11-08T05:53:36.970Z,9.10
2022-11-08T05:56:04.369Z,9.10
2022-11-08T05:58:32.564Z,9.10
2022-11-08T06:01:00.460Z,9.10
2022-11-08T06:03:27.786Z,9.00
2022-11-08T06:05:54.860Z,9.00
2022-11-08T06:08:21.640Z,9.10
2022-11-08T06:10:48.570Z,9.10
2022-11-08T06:13:16.939Z,9.10
2022-11-08T06:15:49.329Z,9.10
2022-11-08T06:18:16.717Z,9.10
2022-11-08T06:20:44.109Z,9.20
2022-11-08T06:23:28.487Z,9.20
2022-11-08T06:25:56.646Z,9.40
2022-11-08T06:28:23.653Z,9.20
2022-11-08T06:30:50.772Z,9.10
2022-11-08T06:33:17.880Z,9.10
2022-11-08T06:35:52.369Z,9.10
2022-11-08T06:38:19.180Z,9.10
2022-11-08T06:40:46.007Z,9.20
2022-11-08T06:43:17.997Z,9.30
2022-11-08T06:45:46.275Z,9.30
2022-11-08T06:48:12.993Z,9.40
2022-11-08T06:50:39.760Z,9.30
2022-11-08T06:53:07.706Z,9.30
2022-11-08T06:55:35.107Z,9.30
2022-11-08T06:58:02.069Z,9.30
2022-11-08T07:00:28.932Z,9.30
2022-11-08T07:02:56.545Z,9.40
2022-11-08T07:05:23.886Z,9.30
2022-11-08T07:07:53.946Z,9.30
2022-11-08T07:10:24.997Z,9.40
2022-11-08T07:12:58.803Z,9.40
2022-11-08T07:15:25.581Z,9.40
2022-11-08T07:17:52.371Z,9.40
2022-11-08T07:20:19.205Z,9.40
2022-11-08T07:22:46.096Z,9.40
2022-11-08T07:25:12.811Z,9.40
2022-11-08T07:27:39.622Z,9.40
2022-11-08T07:30:06.594Z,9.40
2022-11-08T07:32:33.367Z,9.40
2022-11-08T07:35:00.142Z,9.40
2022-11-08T07:37:27.105Z,9.50
2022-11-08T07:39:53.880Z,9.50
2022-11-08T07:42:20.786Z,9.50
2022-11-08T07:45:00.584Z,9.50
2022-11-08T07:47:27.377Z,9.60
2022-11-08T07:49:54.463Z,9.60
2022-11-08T07:52:21.290Z,9.60
2022-11-08T07:54:48.095Z,9.60
2022-11-08T07:57:14.805Z,9.60
2022-11-08T07:59:41.589Z,9.60
2022-11-08T08:02:09.906Z,9.60
2022-11-08T08:04:36.868Z,9.60
2022-11-08T08:07:04.233Z,9.60
2022-11-08T08:09:31.097Z,9.70
2022-11-08T08:11:57.879Z,9.70
2022-11-08T08:14:24.667Z,9.70
2022-11-08T08:16:51.552Z,9.80
2022-11-08T08:19:18.321Z,9.80
2022-11-08T08:21:45.148Z,9.80
2022-11-08T08:24:11.888Z,9.80
2022-11-08T08:26:39.458Z,9.80
2022-11-08T08:29:06.164Z,9.90
2022-11-08T08:31:32.945Z,9.80
2022-11-08T08:33:59.693Z,9.90
2022-11-08T08:36:26.552Z,9.90
2022-11-08T08:38:53.322Z,9.90
2022-11-08T08:41:20.124Z,9.90
2022-11-08T08:43:46.881Z,10.00
2022-11-08T08:46:13.741Z,10.00
2022-11-08T08:48:40.703Z,10.00
2022-11-08T08:51:07.514Z,10.10
2022-11-08T08:53:34.330Z,10.10
2022-11-08T08:56:03.718Z,10.20
2022-11-08T08:58:30.463Z,10.20
2022-11-08T09:03:48.662Z,10.30
2022-11-08T09:06:15.448Z,10.30
2022-11-08T09:08:42.242Z,10.30
2022-11-08T09:11:10.803Z,10.40
2022-11-08T09:13:37.793Z,10.40
2022-11-08T09:16:04.802Z,10.40
2022-11-08T09:18:32.170Z,10.40
2022-11-08T09:20:59.167Z,10.50
2022-11-08T09:23:26.193Z,10.50
2022-11-08T09:25:57.027Z,10.60
2022-11-08T09:28:28.361Z,10.70
2022-11-08T09:31:04.851Z,10.70
2022-11-08T09:33:32.148Z,10.80
2022-11-08T09:36:00.428Z,10.80
2022-11-08T09:38:27.506Z,10.80
2022-11-08T09:41:03.637Z,10.90
2022-11-08T09:43:49.657Z,11.00
2022-11-08T09:46:20.781Z,11.00
2022-11-08T09:48:47.510Z,11.00
2022-11-08T09:51:16.353Z,11.10
2022-11-08T09:53:52.239Z,11.10
2022-11-08T09:56:23.524Z,11.20
2022-11-08T09:59:02.635Z,11.00
2022-11-08T10:01:31.024Z,11.30
2022-11-08T10:04:23.376Z,11.40
2022-11-08T10:07:05.724Z,11.40
2022-11-08T10:09:56.052Z,11.40
2022-11-08T10:12:33.189Z,11.50
2022-11-08T10:15:19.568Z,11.30
2022-11-08T10:18:11.912Z,11.50
2022-11-08T10:20:38.692Z,11.50
2022-11-08T10:23:08.536Z,11.50
2022-11-08T10:25:50.737Z,11.60
2022-11-08T10:28:21.317Z,11.70
2022-11-08T10:30:49.635Z,11.70
2022-11-08T10:33:29.340Z,11.80
2022-11-08T10:36:01.896Z,11.90
2022-11-08T10:38:49.647Z,11.90
2022-11-08T10:41:20.176Z,11.90
2022-11-08T10:43:49.795Z,11.90
2022-11-08T10:46:31.970Z,12.00
2022-11-08T10:49:05.388Z,12.00
2022-11-08T10:51:32.236Z,12.20
2022-11-08T10:53:58.946Z,12.30
2022-11-08T10:56:25.763Z,12.40
2022-11-08T10:58:52.591Z,12.50
2022-11-08T11:01:20.974Z,12.60
2022-11-08T11:03:48.490Z,12.70
2022-11-08T11:06:30.052Z,12.80
2022-11-08T11:08:58.498Z,12.90
2022-11-08T11:11:31.405Z,13.00
2022-11-08T11:14:10.791Z,13.10
2022-11-08T11:16:50.762Z,13.30
2022-11-08T11:19:17.713Z,13.40
2022-11-08T11:21:44.629Z,13.50
2022-11-08T11:24:15.358Z,13.70
2022-11-08T11:26:46.467Z,13.80
2022-11-08T11:29:22.062Z,13.90
2022-11-08T11:31:51.128Z,14.10
2022-11-08T11:34:17.994Z,14.20
2022-11-08T11:36:44.793Z,14.30
2022-11-08T11:39:19.600Z,14.40
2022-11-08T11:41:49.297Z,14.50
2022-11-08T11:44:21.584Z,14.60
2022-11-08T11:46:52.008Z,14.80
2022-11-08T11:49:20.847Z,14.90
2022-11-08T11:51:48.008Z,15.10
2022-11-08T11:54:16.017Z,15.20
2022-11-08T11:56:42.968Z,14.80
2022-11-08T11:59:22.179Z,15.40
2022-11-08T12:01:53.866Z,15.60
2022-11-08T12:04:23.566Z,15.70
2022-11-08T12:07:22.889Z,15.80
2022-11-08T12:09:53.591Z,16.00
2022-11-08T12:12:25.041Z,16.10
2022-11-08T12:14:55.250Z,16.30
2022-11-08T12:17:32.536Z,16.40
2022-11-08T12:20:02.590Z,16.60
2022-11-08T12:22:39.765Z,16.70
2022-11-08T12:25:25.871Z,16.80
2022-11-08T12:27:54.999Z,16.90
2022-11-08T12:30:26.486Z,16.90
2022-11-08T12:32:56.391Z,17.00
2022-11-08T12:35:26.232Z,17.00
2022-11-08T12:38:11.454Z,17.10
2022-11-08T12:40:41.377Z,17.20
2022-11-08T12:43:27.149Z,17.30
2022-11-08T12:45:53.952Z,17.40
2022-11-08T12:48:46.041Z,17.50
2022-11-08T12:51:22.240Z,17.60
2022-11-08T12:53:57.552Z,17.70
2022-11-08T12:56:36.802Z,17.70
2022-11-08T12:59:04.433Z,17.70
2022-11-08T13:01:31.644Z,17.70
2022-11-08T13:04:06.556Z,17.70
2022-11-08T13:06:46.295Z,17.70
2022-11-08T13:09:34.865Z,17.70
2022-11-08T13:12:01.654Z,17.60
2022-11-08T13:14:28.766Z,17.60
2022-11-08T13:17:14.442Z,17.60
2022-11-08T13:19:47.256Z,17.60
2022-11-08T13:22:29.549Z,17.60
2022-11-08T13:25:00.511Z,17.60
2022-11-08T13:27:32.289Z,17.80
2022-11-08T13:30:22.343Z,17.90
2022-11-08T13:32:59.688Z,18.00
2022-11-08T13:35:46.697Z,18.10
2022-11-08T13:38:22.674Z,18.20
2022-11-08T13:41:08.460Z,18.30
2022-11-08T13:43:35.585Z,18.40
2022-11-08T13:46:27.092Z,18.50
2022-11-08T13:49:05.061Z,18.50
2022-11-08T13:51:36.061Z,18.50
2022-11-08T13:54:04.184Z,18.50
2022-11-08T13:56:50.655Z,18.50
2022-11-08T13:59:33.079Z,18.50
2022-11-08T14:02:18.785Z,18.50
2022-11-08T14:04:45.794Z,18.50
2022-11-08T14:07:18.465Z,18.50
2022-11-08T14:10:01.579Z,18.60
2022-11-08T14:12:37.118Z,18.60
2022-11-08T14:15:10.372Z,18.60
2022-11-08T14:17:46.072Z,18.70
2022-11-08T14:20:18.942Z,18.70
2022-11-08T14:22:49.843Z,18.80
2022-11-08T14:25:21.616Z,18.80
2022-11-08T14:27:48.486Z,18.80
2022-11-08T14:30:17.316Z,18.80
2022-11-08T14:32:44.284Z,18.60
2022-11-08T14:35:20.598Z,18.40
2022-11-08T14:37:48.003Z,18.30
2022-11-08T14:40:26.339Z,18.10
2022-11-08T14:42:53.836Z,18.00
2022-11-08T14:45:25.708Z,17.80
2022-11-08T14:47:54.399Z,17.70
2022-11-08T14:50:22.198Z,17.50
2022-11-08T14:52:49.530Z,17.50
2022-11-08T14:55:22.039Z,17.40
2022-11-08T14:57:48.918Z,17.30
2022-11-08T15:00:28.843Z,17.30
2022-11-08T15:02:56.678Z,17.20
2022-11-08T15:05:26.091Z,17.10
2022-11-08T15:07:53.321Z,17.10
2022-11-08T15:10:20.561Z,17.00
2022-11-08T15:12:47.325Z,17.00
2022-11-08T15:15:18.327Z,16.90
2022-11-08T15:17:45.357Z,16.80
2022-11-08T15:20:13.120Z,16.70
2022-11-08T15:22:40.496Z,16.70
2022-11-08T15:25:23.528Z,16.60
2022-11-08T15:27:52.047Z,16.60
2022-11-08T15:30:19.979Z,16.60
2022-11-08T15:32:47.292Z,16.50
2022-11-08T15:35:34.923Z,16.30
2022-11-08T15:38:24.319Z,16.30
2022-11-08T15:40:52.257Z,16.30
2022-11-08T15:43:31.393Z,16.20
2022-11-08T15:45:59.578Z,16.20
2022-11-08T15:48:27.685Z,16.10
2022-11-08T15:50:56.088Z,16.10
2022-11-08T15:53:23.404Z,16.00
2022-11-08T15:55:52.175Z,16.00
2022-11-08T15:58:25.147Z,16.00
2022-11-08T16:00:51.958Z,15.80
2022-11-08T16:03:18.659Z,15.90
2022-11-08T16:05:45.799Z,15.80
2022-11-08T16:08:18.646Z,15.70
2022-11-08T16:10:51.409Z,15.70
2022-11-08T16:13:29.260Z,15.70
2022-11-08T16:15:56.776Z,15.70
2022-11-08T16:18:23.794Z,15.60
2022-11-08T16:20:50.696Z,15.60
2022-11-08T16:23:17.484Z,15.60
2022-11-08T16:25:45.816Z,15.70
2022-11-08T16:28:35.283Z,15.60
2022-11-08T16:31:02.678Z,15.60
2022-11-08T16:33:30.859Z,15.60
2022-11-08T16:35:58.618Z,15.60
2022-11-08T16:38:27.936Z,15.50
2022-11-08T16:40:54.735Z,15.50
2022-11-08T16:43:21.559Z,15.50
2022-11-08T16:46:04.850Z,15.50
2022-11-08T16:48:32.967Z,15.50
2022-11-08T16:51:01.276Z,15.50
2022-11-08T16:53:29.502Z,15.40
2022-11-08T16:55:59.391Z,15.40
2022-11-08T16:58:27.924Z,15.40
2022-11-08T17:00:55.639Z,15.40
2022-11-08T17:03:24.624Z,15.40
2022-11-08T17:05:51.980Z,15.30
2022-11-08T17:08:19.218Z,15.40
2022-11-08T17:10:46.455Z,15.40
2022-11-08T17:13:17.151Z,15.30
2022-11-08T17:15:44.289Z,15.30
2022-11-08T17:18:12.239Z,15.30
2022-11-08T17:20:39.492Z,15.30
2022-11-08T17:23:06.410Z,15.30
2022-11-08T17:25:35.220Z,15.20
2022-11-08T17:28:01.946Z,15.20
2022-11-08T17:30:28.758Z,15.20
2022-11-08T17:32:55.563Z,14.80
2022-11-08T17:35:22.395Z,15.10
2022-11-08T17:37:49.239Z,15.10
2022-11-08T17:40:16.240Z,15.10
2022-11-08T17:42:42.942Z,15.00
2022-11-08T17:45:10.516Z,15.00
2022-11-08T17:47:37.755Z,15.10
2022-11-08T17:50:05.390Z,14.60
2022-11-08T17:52:32.417Z,15.00
2022-11-08T17:54:59.211Z,15.00
2022-11-08T17:57:29.288Z,15.00
2022-11-08T17:59:57.097Z,15.00
2022-11-08T18:02:24.102Z,15.00
2022-11-08T18:04:50.992Z,14.90
2022-11-08T18:07:17.840Z,14.90
2022-11-08T18:09:44.802Z,14.90
2022-11-08T18:12:11.559Z,14.90
2022-11-08T18:14:38.253Z,14.90
2022-11-08T18:17:05.212Z,14.80
2022-11-08T18:19:32.277Z,14.80
2022-11-08T18:22:00.431Z,14.80
2022-11-08T18:24:29.686Z,14.80
2022-11-08T18:26:56.531Z,14.40
2022-11-08T18:29:23.297Z,14.70
2022-11-08T18:31:50.202Z,14.60
2022-11-08T18:34:17.083Z,14.60
2022-11-08T18:36:43.921Z,14.60
2022-11-08T18:39:14.091Z,14.50
2022-11-08T18:41:45.071Z,14.50
2022-11-08T18:44:12.131Z,14.50
2022-11-08T18:46:42.942Z,14.40
2022-11-08T18:49:10.610Z,14.40
2022-11-08T18:51:37.502Z,14.40
2022-11-08T18:54:04.440Z,14.30
2022-11-08T18:56:31.338Z,14.30
2022-11-08T18:58:59.929Z,14.20
2022-11-08T19:01:26.831Z,14.10
2022-11-08T19:03:53.755Z,14.00
2022-11-08T19:06:20.684Z,14.00
2022-11-08T19:08:47.825Z,13.90
2022-11-08T19:11:15.276Z,13.90
2022-11-08T19:13:42.232Z,13.80
2022-11-08T19:16:13.081Z,13.80
2022-11-08T19:18:40.744Z,13.80
2022-11-08T19:21:15.437Z,14.00
2022-11-08T19:23:46.183Z,13.70
2022-11-08T19:26:14.963Z,13.30
2022-11-08T19:28:45.207Z,13.60
2022-11-08T19:31:18.719Z,13.60
2022-11-08T19:33:46.350Z,13.50
2022-11-08T19:36:20.393Z,13.00
2022-11-08T19:38:47.427Z,13.60
2022-11-08T19:41:17.703Z,13.40
2022-11-08T19:43:57.361Z,13.30
2022-11-08T19:46:26.909Z,13.30
2022-11-08T19:48:54.135Z,13.20
2022-11-08T19:51:24.096Z,13.20
2022-11-08T19:54:00.359Z,13.20
2022-11-08T19:59:20.894Z,13.20
2022-11-08T20:01:48.294Z,13.20
2022-11-08T20:04:18.918Z,13.10
2022-11-08T20:06:46.624Z,13.10
2022-11-08T20:09:13.916Z,12.70
2022-11-08T20:11:41.886Z,13.10
2022-11-08T20:14:09.473Z,13.10
2022-11-08T20:16:40.963Z,12.70
2022-11-08T20:19:09.707Z,13.00
2022-11-08T20:21:43.410Z,13.00
2022-11-08T20:24:10.811Z,13.10
2022-11-08T20:26:38.733Z,12.90
2022-11-08T20:29:19.183Z,13.00
2022-11-08T20:31:53.128Z,12.90
2022-11-08T20:34:20.124Z,12.80
2022-11-08T20:36:46.960Z,12.80
2022-11-08T20:39:14.768Z,12.80
2022-11-08T20:41:42.234Z,12.30
2022-11-08T20:44:09.933Z,12.70
2022-11-08T20:46:38.144Z,12.60
2022-11-08T20:49:05.709Z,12.70
2022-11-08T20:51:33.372Z,12.60
2022-11-08T20:54:00.571Z,12.60
2022-11-08T20:56:28.195Z,12.50
2022-11-08T20:58:55.178Z,12.60
2022-11-08T21:01:23.247Z,12.50
2022-11-08T21:03:51.227Z,12.50
2022-11-08T21:06:22.650Z,12.50
2022-11-08T21:09:05.633Z,12.50
2022-11-08T21:11:39.754Z,12.50
2022-11-08T21:14:06.804Z,12.40
2022-11-08T21:16:52.852Z,12.40
2022-11-08T21:19:21.505Z,12.30
2022-11-08T21:21:48.503Z,12.40
2022-11-08T21:24:15.672Z,12.30
2022-11-08T21:26:42.613Z,12.30
2022-11-08T21:29:09.419Z,12.30
2022-11-08T21:31:36.308Z,12.30
2022-11-08T21:34:03.164Z,12.30
2022-11-08T21:36:30.152Z,12.20
2022-11-08T21:38:56.938Z,12.30
2022-11-08T21:41:23.824Z,12.20
2022-11-08T21:43:50.608Z,12.20
2022-11-08T21:46:26.928Z,12.20
2022-11-08T21:48:55.213Z,12.40
2022-11-08T21:51:22.378Z,12.20
2022-11-08T21:53:55.126Z,12.20
2022-11-08T21:56:23.660Z,12.30
2022-11-08T21:58:50.531Z,12.40
2022-11-08T22:01:17.634Z,12.40
2022-11-08T22:03:44.530Z,12.40
2022-11-08T22:06:11.739Z,12.50
2022-11-08T22:08:38.681Z,12.50
2022-11-08T22:11:05.667Z,12.50
2022-11-08T22:13:32.424Z,12.60
2022-11-08T22:15:59.249Z,12.60
2022-11-08T22:18:43.549Z,12.60
2022-11-08T22:21:31.651Z,12.60
2022-11-08T22:23:58.408Z,12.70
2022-11-08T22:26:25.133Z,12.70
2022-11-08T22:28:51.988Z,12.70
2022-11-08T22:31:18.704Z,12.70
2022-11-08T22:33:45.476Z,12.80
2022-11-08T22:36:12.229Z,12.70
2022-11-08T22:38:39.078Z,12.80
2022-11-08T22:41:06.048Z,12.80
2022-11-08T22:43:33.653Z,12.80
2022-11-08T22:46:00.376Z,12.80
2022-11-08T22:48:27.277Z,12.80
2022-11-08T22:50:54.011Z,12.70
2022-11-08T22:53:21.086Z,12.70
2022-11-08T22:55:48.085Z,12.70
2022-11-08T22:58:14.846Z,12.70
2022-11-08T23:01:06.449Z,12.70
2022-11-08T23:03:33.436Z,12.70
2022-11-08T23:06:00.160Z,12.70
2022-11-08T23:08:27.349Z,12.60
2022-11-08T23:11:12.756Z,12.60
2022-11-08T23:13:58.784Z,12.60
2022-11-08T23:16:31.947Z,12.60
2022-11-08T23:19:17.474Z,12.60
2022-11-08T23:22:03.215Z,12.60
2022-11-08T23:24:31.562Z,12.70
2022-11-08T23:27:17.607Z,12.70
2022-11-08T23:30:03.172Z,12.70
2022-11-08T23:32:30.107Z,12.80
2022-11-08T23:34:56.898Z,12.60
2022-11-08T23:37:23.636Z,12.90
2022-11-08T23:40:08.956Z,12.90
2022-11-08T23:42:54.532Z,12.90
2022-11-08T23:45:21.382Z,13.00
2022-11-08T23:47:48.142Z,13.00
2022-11-08T23:50:15.069Z,13.00
2022-11-08T23:52:41.808Z,13.00
2022-11-08T23:55:08.864Z,13.00
2022-11-08T23:57:35.827Z,13.00
